Gaborone, Botswana

10:55 AM CAT on February 07, 2016 (GMT +0200)
Tlokweng | | Change Station
CLOSE
Current Station
Personal Weather Station
Location: Gaborone, SOUTH-EAST
Elevation: 3212 ft
Nearby Weather Stations

Elev 3212 ft 24.68 °S, 25.95 °E | Updated 19 seconds ago

Clear
Clear
88.0 °F
Feels Like 89 °F
N
4.5
Wind Variable Wind from NW
Gusts 4.9 mph

Today
High -- | Low -- °F
--% Chance of Precip.
Yesterday
High -- | Low -- °F
Precip. -- in
Pressure 30.01 in
Visibility -9999.0 miles
Clouds
Heat Index 89 °F
Dew Point 63 °F
Humidity 44%
Rainfall 0.00 in
Snow Depth Not available.
5:57 AM 7:03 PM
Waning Crescent, 2% visible
METAR FBSK 070800Z 36007KT 320V080 CAVOK 30/17 Q1016 NOSIG
Pressure 30.01 in
Visibility -9999.0 miles
Clouds
Heat Index 89 °F
Dew Point 63 °F
Humidity 44%
Rainfall 0.00 in
Snow Depth Not available.
5:57 AM 7:03 PM
Waning Crescent, 2% visible
METAR FBSK 070800Z 36007KT 320V080 CAVOK 30/17 Q1016 NOSIG

10-Day Weather Forecast

No radar image for this location.
×

Almanac

Astronomy

Feb. 07, 2016 Rise Set
Actual Time
Civil Twilight
Nautical Twilight
Astronomical Twilight
Moon
Length of Visible Light
Length of Day
Tomorrow will be .
, % of the Moon is Illuminated

Today's Extremes

Country Highs Country Lows

Community

WunderPhotos

Upload Photos

1,891,171 photos uploaded!

WunderBlog® & News

Nearby

Air Quality

  Air Quality AQ Index Pollutant
Not available.

Snow Depth

Station Depth Elevation

Earthquake Activity

City Distance Mag. Time & Date
Minimum magnitude displayed is 2.5.

Coastal Water Temperatures

Place Temperature

Stations

Nearby Weather Stations

Station Location Temp. Windchill Dew Point Humidity Wind Precip. Elev Updated Type